createdAt,value
2023-04-01T00:04:17.176Z,11.30
2023-04-01T00:06:56.451Z,11.31
2023-04-01T00:09:35.793Z,11.31
2023-04-01T00:12:15.057Z,11.30
2023-04-01T00:14:59.752Z,11.29
2023-04-01T00:17:39.747Z,11.29
2023-04-01T00:20:20.429Z,11.30
2023-04-01T00:22:59.837Z,11.31
2023-04-01T00:25:39.134Z,11.31
2023-04-01T00:28:18.401Z,11.32
2023-04-01T00:31:02.959Z,11.31
2023-04-01T00:33:42.608Z,11.30
2023-04-01T00:36:25.333Z,11.28
2023-04-01T00:39:06.214Z,11.28
2023-04-01T00:41:45.694Z,11.28
2023-04-01T00:44:28.283Z,11.28
2023-04-01T00:47:13.193Z,11.29
2023-04-01T00:49:56.363Z,11.30
2023-04-01T00:52:36.449Z,11.33
2023-04-01T00:55:21.993Z,11.36
2023-04-01T00:58:03.598Z,11.37
2023-04-01T01:00:44.827Z,11.38
2023-04-01T01:03:29.195Z,11.38
2023-04-01T01:06:24.019Z,11.36
2023-04-01T01:09:18.580Z,11.34
2023-04-01T01:12:06.162Z,11.35
2023-04-01T01:15:01.323Z,11.37
2023-04-01T01:17:56.715Z,11.38
2023-04-01T01:21:03.369Z,11.38
2023-04-01T01:24:16.961Z,11.38
2023-04-01T01:27:07.586Z,11.37
2023-04-01T01:30:23.310Z,11.36
2023-04-01T01:33:33.985Z,11.36
2023-04-01T01:36:23.908Z,11.31
2023-04-01T01:39:05.952Z,11.31
2023-04-01T01:41:51.499Z,11.30
2023-04-01T01:44:35.173Z,11.28
2023-04-01T01:47:14.547Z,11.27
2023-04-01T01:49:54.338Z,11.26
2023-04-01T01:52:38.621Z,11.26
2023-04-01T01:55:35.720Z,11.27
2023-04-01T01:58:24.973Z,11.29
2023-04-01T02:01:09.630Z,11.31
2023-04-01T02:03:52.830Z,11.31
2023-04-01T02:06:36.660Z,11.32
2023-04-01T02:09:21.822Z,11.32
2023-04-01T02:12:06.185Z,11.32
2023-04-01T02:14:52.835Z,11.33
2023-04-01T02:17:35.920Z,11.33
2023-04-01T02:20:21.878Z,11.34
2023-04-01T02:23:04.274Z,11.33
2023-04-01T02:25:51.989Z,11.32
2023-04-01T02:28:33.663Z,11.33
2023-04-01T02:31:13.648Z,11.34
2023-04-01T02:33:54.842Z,11.35
2023-04-01T02:36:34.429Z,11.35
2023-04-01T02:39:14.778Z,11.33
2023-04-01T02:41:59.350Z,11.31
2023-04-01T02:44:38.778Z,11.30
2023-04-01T02:47:18.363Z,11.30
2023-04-01T02:50:00.164Z,11.31
2023-04-01T02:52:39.607Z,11.32
2023-04-01T02:55:19.005Z,11.33
2023-04-01T02:58:03.504Z,11.33
2023-04-01T03:00:42.979Z,11.33
2023-04-01T03:03:22.446Z,11.35
2023-04-01T03:06:02.407Z,11.36
2023-04-01T03:08:41.920Z,11.38
2023-04-01T03:11:22.046Z,11.40
2023-04-01T03:14:06.480Z,11.42
2023-04-01T03:16:45.859Z,11.41
2023-04-01T03:19:25.309Z,11.39
2023-04-01T03:22:04.618Z,11.36
2023-04-01T03:24:46.786Z,11.34
2023-04-01T03:27:26.077Z,11.30
2023-04-01T03:30:11.902Z,11.29
2023-04-01T03:32:51.174Z,11.28
2023-04-01T03:35:30.676Z,11.27
2023-04-01T03:38:10.334Z,11.26
2023-04-01T03:40:50.877Z,11.27
2023-04-01T03:43:30.241Z,11.28
2023-04-01T03:46:14.744Z,11.29
2023-04-01T03:48:54.234Z,11.28
2023-04-01T03:51:33.603Z,11.29
2023-04-01T03:54:13.264Z,11.28
2023-04-01T03:56:52.697Z,11.29
2023-04-01T03:59:32.132Z,11.29
2023-04-01T04:02:16.608Z,11.28
2023-04-01T04:04:55.910Z,11.24
2023-04-01T04:07:35.260Z,11.22
2023-04-01T04:10:15.835Z,11.21
2023-04-01T04:12:55.138Z,11.22
2023-04-01T04:15:34.602Z,11.21
2023-04-01T04:18:19.080Z,11.21
2023-04-01T04:20:58.368Z,11.20
2023-04-01T04:23:39.578Z,11.19
2023-04-01T04:26:21.067Z,11.19
2023-04-01T04:29:00.667Z,11.19
2023-04-01T04:31:39.977Z,11.19
2023-04-01T04:34:24.581Z,11.20
2023-04-01T04:37:03.891Z,11.19
2023-04-01T04:39:43.278Z,11.19
2023-04-01T04:42:22.589Z,11.20
2023-04-01T04:45:01.964Z,11.22
2023-04-01T04:47:41.399Z,11.22
2023-04-01T04:50:25.857Z,11.20
2023-04-01T04:53:05.110Z,11.17
2023-04-01T04:55:44.434Z,11.18
2023-04-01T04:58:24.590Z,11.18
2023-04-01T05:01:03.967Z,11.19
2023-04-01T05:03:43.417Z,11.21
2023-04-01T05:06:31.656Z,11.23
2023-04-01T05:09:11.241Z,11.23
2023-04-01T05:11:50.824Z,11.22
2023-04-01T05:14:30.129Z,11.21
2023-04-01T05:17:09.732Z,11.19
2023-04-01T05:19:49.079Z,11.19
2023-04-01T05:22:33.505Z,11.17
2023-04-01T05:25:13.796Z,11.15
2023-04-01T05:27:53.641Z,11.14
2023-04-01T05:30:33.033Z,11.13
2023-04-01T05:33:12.333Z,11.10
2023-04-01T05:35:51.689Z,11.06
2023-04-01T05:38:36.116Z,11.04
2023-04-01T05:41:15.446Z,11.01
2023-04-01T05:43:54.756Z,11.00
2023-04-01T05:46:34.127Z,11.00
2023-04-01T05:49:13.560Z,10.99
2023-04-01T05:51:53.452Z,10.99
2023-04-01T05:54:37.853Z,10.98
2023-04-01T05:57:17.216Z,10.98
2023-04-01T05:59:56.641Z,10.98
2023-04-01T06:02:36.163Z,10.98
2023-04-01T06:05:24.398Z,10.98
2023-04-01T06:08:08.013Z,10.96
2023-04-01T06:11:07.000Z,10.95
2023-04-01T06:14:07.453Z,10.94
2023-04-01T06:17:02.003Z,10.98
2023-04-01T06:19:55.430Z,11.00
2023-04-01T06:23:12.120Z,11.04
2023-04-01T06:26:11.269Z,11.06
2023-04-01T06:29:14.528Z,11.06
2023-04-01T06:32:22.815Z,11.08
2023-04-01T06:35:27.160Z,11.12
2023-04-01T06:38:22.040Z,11.14
2023-04-01T06:41:37.727Z,11.15
2023-04-01T06:44:28.660Z,11.19
2023-04-01T06:47:22.926Z,11.20
2023-04-01T06:50:09.105Z,11.24
2023-04-01T06:53:03.760Z,11.29
2023-04-01T06:55:49.806Z,11.32
2023-04-01T06:58:42.111Z,11.36
2023-04-01T07:01:30.544Z,11.35
2023-04-01T07:04:18.304Z,11.36
2023-04-01T07:07:02.485Z,11.36
2023-04-01T07:09:47.662Z,11.36
2023-04-01T07:12:36.277Z,11.33
2023-04-01T07:15:27.862Z,11.28
2023-04-01T07:18:13.959Z,11.24
2023-04-01T07:20:55.442Z,11.23
2023-04-01T07:23:41.457Z,11.21
2023-04-01T07:26:27.128Z,11.15
2023-04-01T07:29:06.766Z,11.13
2023-04-01T07:32:22.390Z,11.13
2023-04-01T07:35:20.271Z,11.12
2023-04-01T07:38:19.426Z,11.13
2023-04-01T07:41:11.188Z,11.14
2023-04-01T07:44:07.420Z,11.16
2023-04-01T07:47:04.278Z,11.18
2023-04-01T07:50:02.456Z,11.20
2023-04-01T07:52:51.707Z,11.20
2023-04-01T07:55:38.777Z,11.20
2023-04-01T07:58:29.108Z,11.15
2023-04-01T08:01:14.243Z,11.11
2023-04-01T08:04:15.220Z,11.11
2023-04-01T08:07:04.644Z,11.13
2023-04-01T08:09:55.470Z,11.14
2023-04-01T08:12:49.040Z,11.14
2023-04-01T08:15:34.974Z,11.12
2023-04-01T08:18:28.088Z,11.10
2023-04-01T08:21:10.926Z,11.08
2023-04-01T08:23:59.495Z,11.06
2023-04-01T08:26:47.613Z,11.05
2023-04-01T08:29:32.600Z,11.09
2023-04-01T08:32:19.157Z,11.14
2023-04-01T08:35:10.415Z,11.15
2023-04-01T08:37:53.026Z,11.16
2023-04-01T08:41:01.982Z,11.15
2023-04-01T08:44:20.813Z,11.15
2023-04-01T08:47:22.077Z,11.14
2023-04-01T08:50:30.473Z,11.11
2023-04-01T08:53:20.705Z,11.11
2023-04-01T08:56:22.435Z,11.08
2023-04-01T08:59:28.328Z,11.05
2023-04-01T09:02:34.202Z,11.01
2023-04-01T09:06:06.734Z,11.02
2023-04-01T09:09:10.418Z,11.02
2023-04-01T09:12:14.641Z,11.03
2023-04-01T09:15:14.186Z,11.08
2023-04-01T09:18:31.942Z,11.14
2023-04-01T09:21:43.546Z,11.22
2023-04-01T09:24:41.599Z,11.28
2023-04-01T09:27:35.924Z,11.34
2023-04-01T09:30:45.252Z,11.39
2023-04-01T09:33:55.098Z,11.44
2023-04-01T09:36:52.047Z,11.51
2023-04-01T09:39:43.631Z,11.55
2023-04-01T09:42:50.076Z,11.59
2023-04-01T09:45:57.490Z,11.63
2023-04-01T09:48:55.197Z,11.64
2023-04-01T09:51:47.527Z,11.66
2023-04-01T09:54:44.433Z,11.66
2023-04-01T09:57:54.123Z,11.66
2023-04-01T10:01:04.501Z,11.66
2023-04-01T10:04:16.952Z,11.70
2023-04-01T10:07:31.511Z,11.69
2023-04-01T10:10:37.714Z,11.69
2023-04-01T10:14:03.560Z,11.69
2023-04-01T10:17:24.963Z,11.73
2023-04-01T10:20:16.823Z,11.80
2023-04-01T10:23:18.003Z,11.88
2023-04-01T10:26:35.425Z,11.99
2023-04-01T10:29:53.539Z,12.06
2023-04-01T10:33:17.772Z,12.09
2023-04-01T10:36:31.169Z,12.14
2023-04-01T10:39:38.178Z,12.20
2023-04-01T10:42:50.367Z,12.27
2023-04-01T10:46:06.674Z,12.35
2023-04-01T10:49:20.171Z,12.37
2023-04-01T10:52:42.277Z,12.36
2023-04-01T10:55:51.481Z,12.32
2023-04-01T10:59:11.224Z,12.31
2023-04-01T11:02:30.799Z,12.28
2023-04-01T11:05:47.232Z,12.24
2023-04-01T11:09:20.475Z,12.23
2023-04-01T11:12:23.083Z,12.21
2023-04-01T11:15:33.806Z,12.22
2023-04-01T11:18:57.611Z,12.23
2023-04-01T11:22:07.915Z,12.28
2023-04-01T11:25:17.582Z,12.27
2023-04-01T11:28:22.270Z,12.27
2023-04-01T11:31:25.627Z,12.29
2023-04-01T11:34:14.295Z,12.29
2023-04-01T11:37:08.673Z,12.33
2023-04-01T11:40:08.316Z,12.38
2023-04-01T11:42:57.871Z,12.40
2023-04-01T11:45:45.373Z,12.43
2023-04-01T11:48:53.116Z,12.50
2023-04-01T11:52:02.801Z,12.54
2023-04-01T11:55:10.846Z,12.54
2023-04-01T11:58:07.189Z,12.56
2023-04-01T12:01:07.348Z,12.60
2023-04-01T12:04:13.063Z,12.61
2023-04-01T12:07:03.067Z,12.61
2023-04-01T12:09:54.914Z,12.59
2023-04-01T12:13:00.175Z,12.54
2023-04-01T12:16:01.283Z,12.46
2023-04-01T12:18:48.442Z,12.41
2023-04-01T12:21:40.881Z,12.40
2023-04-01T12:24:43.854Z,12.42
2023-04-01T12:27:46.522Z,12.48
2023-04-01T12:30:50.950Z,12.49
2023-04-01T12:33:59.898Z,12.44
2023-04-01T12:36:58.879Z,12.39
2023-04-01T12:39:57.626Z,12.33
2023-04-01T12:43:02.208Z,12.28
2023-04-01T12:45:43.469Z,12.24
2023-04-01T12:48:42.434Z,12.20
2023-04-01T12:51:46.331Z,12.18
2023-04-01T12:55:07.023Z,12.17
2023-04-01T12:58:23.382Z,12.18
2023-04-01T13:01:35.711Z,12.18
2023-04-01T13:04:57.354Z,12.20
2023-04-01T13:08:09.783Z,12.24
2023-04-01T13:11:16.799Z,12.29
2023-04-01T13:14:31.236Z,12.39
2023-04-01T13:17:26.716Z,12.47
2023-04-01T13:20:17.732Z,12.55
2023-04-01T13:23:15.753Z,12.59
2023-04-01T13:26:13.819Z,12.63
2023-04-01T13:29:04.875Z,12.70
2023-04-01T13:32:02.115Z,12.78
2023-04-01T13:34:58.927Z,12.81
2023-04-01T13:37:59.504Z,12.85
2023-04-01T13:41:03.529Z,12.89
2023-04-01T13:43:48.045Z,12.90
2023-04-01T13:47:09.142Z,12.89
2023-04-01T13:50:17.684Z,12.89
2023-04-01T13:53:27.527Z,12.88
2023-04-01T13:56:23.695Z,12.85
2023-04-01T13:59:25.500Z,12.80
2023-04-01T14:02:30.486Z,12.75
2023-04-01T14:05:43.161Z,12.71
2023-04-01T14:08:39.412Z,12.64
2023-04-01T14:11:30.802Z,12.61
2023-04-01T14:14:23.308Z,12.59
2023-04-01T14:17:26.186Z,12.55
2023-04-01T14:20:37.792Z,12.51
2023-04-01T14:23:33.833Z,12.51
2023-04-01T14:26:36.454Z,12.50
2023-04-01T14:29:33.290Z,12.50
2023-04-01T14:32:25.355Z,12.50
2023-04-01T14:35:30.237Z,12.50
2023-04-01T14:38:46.777Z,12.46
2023-04-01T14:41:38.421Z,12.43
2023-04-01T14:44:32.404Z,12.40
2023-04-01T14:47:36.577Z,12.38
2023-04-01T14:50:22.018Z,12.39
2023-04-01T14:53:17.716Z,12.39
2023-04-01T14:56:04.962Z,12.43
2023-04-01T14:58:54.358Z,12.47
2023-04-01T15:01:49.639Z,12.51
2023-04-01T15:04:57.527Z,12.51
2023-04-01T15:08:08.889Z,12.48
2023-04-01T15:11:23.692Z,12.43
2023-04-01T15:14:28.311Z,12.42
2023-04-01T15:17:24.912Z,12.41
2023-04-01T15:20:27.447Z,12.41
2023-04-01T15:23:20.966Z,12.40
2023-04-01T15:26:20.158Z,12.39
2023-04-01T15:29:26.360Z,12.39
2023-04-01T15:32:13.409Z,12.39
2023-04-01T15:35:05.511Z,12.37
2023-04-01T15:38:02.596Z,12.34
2023-04-01T15:40:53.769Z,12.29
2023-04-01T15:43:50.738Z,12.29
2023-04-01T15:46:51.824Z,12.29
2023-04-01T15:49:45.094Z,12.28
2023-04-01T15:52:39.251Z,12.27
2023-04-01T15:55:29.133Z,12.26
2023-04-01T15:58:39.774Z,12.25
2023-04-01T16:01:34.288Z,12.22
2023-04-01T16:04:49.347Z,12.21
2023-04-01T16:07:58.956Z,12.20
2023-04-01T16:10:55.536Z,12.17
2023-04-01T16:13:56.687Z,12.14
2023-04-01T16:16:53.779Z,12.10
2023-04-01T16:19:59.626Z,12.06
2023-04-01T16:22:43.581Z,12.02
2023-04-01T16:25:37.228Z,12.00
2023-04-01T16:28:30.588Z,11.96
2023-04-01T16:31:18.494Z,11.90
2023-04-01T16:34:05.931Z,11.88
2023-04-01T16:36:57.058Z,11.86
2023-04-01T16:39:45.900Z,11.84
2023-04-01T16:42:47.440Z,11.81
2023-04-01T16:45:43.449Z,11.78
2023-04-01T16:48:26.432Z,11.76
2023-04-01T16:54:14.230Z,11.71
2023-04-01T16:56:59.191Z,11.70
2023-04-01T16:59:45.512Z,11.69
2023-04-01T17:02:31.046Z,11.68
2023-04-01T17:05:16.724Z,11.67
2023-04-01T17:08:10.291Z,11.65
2023-04-01T17:11:05.443Z,11.63
2023-04-01T17:13:56.978Z,11.63
2023-04-01T17:17:01.342Z,11.62
2023-04-01T17:19:53.520Z,11.61
2023-04-01T17:22:42.560Z,11.60
2023-04-01T17:25:42.472Z,11.59
2023-04-01T17:28:41.051Z,11.56
2023-04-01T17:31:38.845Z,11.56
2023-04-01T17:34:37.699Z,11.55
2023-04-01T17:37:39.495Z,11.55
2023-04-01T17:40:39.504Z,11.53
2023-04-01T17:43:38.319Z,11.54
2023-04-01T17:46:38.226Z,11.55
2023-04-01T17:49:34.704Z,11.57
2023-04-01T17:52:30.271Z,11.57
2023-04-01T17:55:40.718Z,11.55
2023-04-01T17:58:27.658Z,11.52
2023-04-01T18:01:29.109Z,11.50
2023-04-01T18:04:26.353Z,11.50
2023-04-01T18:07:39.878Z,11.48
2023-04-01T18:10:33.984Z,11.47
2023-04-01T18:13:38.070Z,11.46
2023-04-01T18:16:52.419Z,11.46
2023-04-01T18:19:44.336Z,11.47
2023-04-01T18:22:30.308Z,11.48
2023-04-01T18:25:23.519Z,11.52
2023-04-01T18:28:29.853Z,11.52
2023-04-01T18:31:19.398Z,11.53
2023-04-01T18:34:14.816Z,11.54
2023-04-01T18:36:59.998Z,11.54
2023-04-01T18:39:46.832Z,11.56
2023-04-01T18:42:47.095Z,11.59
2023-04-01T18:45:34.647Z,11.62
2023-04-01T18:48:31.715Z,11.62
2023-04-01T18:51:23.117Z,11.64
2023-04-01T18:54:08.928Z,11.65
2023-04-01T18:56:51.766Z,11.68
2023-04-01T18:59:37.972Z,11.68
2023-04-01T19:02:34.080Z,11.68
2023-04-01T19:05:20.686Z,11.66
2023-04-01T19:08:25.816Z,11.63
2023-04-01T19:11:17.093Z,11.60
2023-04-01T19:14:09.005Z,11.60
2023-04-01T19:17:00.559Z,11.61
2023-04-01T19:19:58.213Z,11.60
2023-04-01T19:23:03.409Z,11.59
2023-04-01T19:25:57.597Z,11.59
2023-04-01T19:28:50.908Z,11.57
2023-04-01T19:31:46.016Z,11.55
2023-04-01T19:34:36.098Z,11.53
2023-04-01T19:37:32.842Z,11.49
2023-04-01T19:40:40.961Z,11.46
2023-04-01T19:43:41.413Z,11.47
2023-04-01T19:46:30.726Z,11.48
2023-04-01T19:49:29.098Z,11.49
2023-04-01T19:52:17.829Z,11.50
2023-04-01T19:55:05.448Z,11.51
2023-04-01T19:57:54.805Z,11.51
2023-04-01T20:00:45.826Z,11.49
2023-04-01T20:03:42.534Z,11.48
2023-04-01T20:06:31.296Z,11.47
2023-04-01T20:09:35.062Z,11.47
2023-04-01T20:12:26.092Z,11.47
2023-04-01T20:15:08.515Z,11.46
2023-04-01T20:17:55.583Z,11.46
2023-04-01T20:20:37.971Z,11.46
2023-04-01T20:23:38.973Z,11.47
2023-04-01T20:26:21.314Z,11.47
2023-04-01T20:29:20.695Z,11.46
2023-04-01T20:32:14.524Z,11.44
2023-04-01T20:35:21.663Z,11.39
2023-04-01T20:38:20.720Z,11.37
2023-04-01T20:41:11.112Z,11.34
2023-04-01T20:44:13.264Z,11.33
2023-04-01T20:47:01.649Z,11.33
2023-04-01T20:49:53.841Z,11.33
2023-04-01T20:52:46.819Z,11.31
2023-04-01T20:55:58.534Z,11.29
2023-04-01T20:58:52.111Z,11.26
2023-04-01T21:01:47.228Z,11.24
2023-04-01T21:04:34.246Z,11.23
2023-04-01T21:07:28.054Z,11.22
2023-04-01T21:10:37.653Z,11.22
2023-04-01T21:13:32.531Z,11.23
2023-04-01T21:16:24.613Z,11.24
2023-04-01T21:19:20.754Z,11.26
2023-04-01T21:22:33.126Z,11.27
2023-04-01T21:25:36.595Z,11.29
2023-04-01T21:28:37.660Z,11.30
2023-04-01T21:31:46.041Z,11.32
2023-04-01T21:34:57.597Z,11.36
2023-04-01T21:37:53.042Z,11.39
2023-04-01T21:41:00.349Z,11.42
2023-04-01T21:44:16.485Z,11.42
2023-04-01T21:47:17.168Z,11.42
2023-04-01T21:50:22.552Z,11.41
2023-04-01T21:53:36.024Z,11.40
2023-04-01T21:56:58.198Z,11.39
2023-04-01T22:00:13.581Z,11.37
2023-04-01T22:03:26.105Z,11.35
2023-04-01T22:06:16.609Z,11.34
2023-04-01T22:09:18.267Z,11.33
2023-04-01T22:12:17.142Z,11.32
2023-04-01T22:15:04.632Z,11.32
2023-04-01T22:17:54.045Z,11.33
2023-04-01T22:20:43.089Z,11.33
2023-04-01T22:23:34.012Z,11.34
2023-04-01T22:26:24.583Z,11.33
2023-04-01T22:29:17.383Z,11.32
2023-04-01T22:32:03.715Z,11.30
2023-04-01T22:34:53.141Z,11.28
2023-04-01T22:37:41.825Z,11.28
2023-04-01T22:40:31.727Z,11.27
2023-04-01T22:43:16.718Z,11.25
2023-04-01T22:46:21.329Z,11.23
2023-04-01T22:49:08.155Z,11.21
2023-04-01T22:51:52.005Z,11.21
2023-04-01T22:54:38.232Z,11.20
2023-04-01T22:57:22.895Z,11.19
2023-04-01T23:00:13.984Z,11.20
2023-04-01T23:03:17.385Z,11.19
2023-04-01T23:06:00.997Z,11.19
2023-04-01T23:09:11.320Z,11.18
2023-04-01T23:11:56.604Z,11.17
2023-04-01T23:14:54.875Z,11.18
2023-04-01T23:17:55.491Z,11.17
2023-04-01T23:21:01.492Z,11.16
2023-04-01T23:24:00.443Z,11.16
2023-04-01T23:26:48.881Z,11.16
2023-04-01T23:29:30.736Z,11.16
2023-04-01T23:32:11.499Z,11.15
2023-04-01T23:34:57.255Z,11.16
2023-04-01T23:37:41.904Z,11.18
2023-04-01T23:40:22.692Z,11.19
2023-04-01T23:43:02.310Z,11.21
2023-04-01T23:45:41.955Z,11.22
2023-04-01T23:48:27.255Z,11.24
2023-04-01T23:51:07.527Z,11.28
2023-04-01T23:53:54.155Z,11.30
2023-04-01T23:56:45.578Z,11.33
2023-04-01T23:59:27.234Z,11.36
